Blue Star 1 — SWET — position and weather

sailwx.info

Track history (hours):
 
Tides and Currents Weather Stations Pressure Air Temp Water Temp Dewpoint Dewpoint Depression Visibility Wind Speed Wind Dir Waves Ship Positions

Blue Star 1

Last reported at 2017-Aug-22 19:32 UTC. Time now 2017-Aug-23 13:45 UTC.
Position N 37°37' E 023°56'.

Length 176 m; draft 6.5 m.

Type: Passenger vessel. MMSI: 239710000.

Date/timePositionNaut miles runAvg speedWind from/ knotsBaromVisibWave heightAir tempDewpointWater temp
2017-Aug-22 19:32N 37°37' E 023°56'119.4
2017-Aug-22 19:29N 37°37' E 023°55'919.2
2017-Aug-22 19:00N 37°40' E 023°44'1019.4
2017-Aug-22 18:30N 37°48' E 023°38'816.6
2017-Aug-22 18:00N 37°56' E 023°38'0 0.1
2017-Aug-22 17:30N 37°56' E 023°38'0 0.0
2017-Aug-22 17:00N 37°56' E 023°38'0 0.0
2017-Aug-22 16:30N 37°56' E 023°38'0 0.0
2017-Aug-22 16:00N 37°56' E 023°38'1 2.3
2017-Aug-22 15:31N 37°56' E 023°37'1223.7
2017-Aug-22 15:01N 37°45' E 023°44'1224.6
2017-Aug-22 14:30N 37°38' E 023°57'3825.0
2017-Aug-22 12:59N 37°31' E 024°44'1123.3
2017-Aug-22 12:31N 37°29' E 024°57'2 4.7
2017-Aug-22 12:00N 37°26' E 024°57'2 3.8
2017-Aug-22 11:30N 37°27' E 024°59'1325.4
2017-Aug-22 11:01N 37°28' E 025°15'4 7.3
2017-Aug-22 10:31N 37°28' E 025°19'0 0.0
2017-Aug-22 10:01N 37°28' E 025°19'0 0.0
2017-Aug-22 09:31N 37°28' E 025°19'4 8.2
2017-Aug-22 09:01N 37°28' E 025°14'1224.5
2017-Aug-22 08:30N 37°26' E 024°59'2 3.1
2017-Aug-22 07:56N 37°26' E 024°57'613.2
2017-Aug-22 07:27N 37°32' E 024°52'4425.3
2017-Aug-22 05:44N 37°36' E 023°57'625.8
2017-Aug-22 05:30N 37°38' E 023°50'1224.4
2017-Aug-22 05:01N 37°46' E 023°40'1020.8
2017-Aug-22 04:30N 37°56' E 023°38'0 0.0
2017-Aug-22 04:00N 37°56' E 023°38'0 0.0
2017-Aug-22 03:30N 37°56' E 023°38'0 0.0
2017-Aug-22 03:00N 37°56' E 023°38'0 0.2
2017-Aug-22 02:31N 37°56' E 023°38'1019.3
2017-Aug-22 02:01N 37°47' E 023°42'1223.8
2017-Aug-22 01:31N 37°39' E 023°53'2023.6
2017-Aug-22 00:39N 37°44' E 024°17'12 0.4
2017-Aug-20 19:55N 37°37' E 024°05'819.4
2017-Aug-20 19:30N 37°38' E 023°55'1019.5
2017-Aug-20 19:00N 37°40' E 023°43'1019.4
2017-Aug-20 18:30N 37°49' E 023°38'815.4
2017-Aug-20 18:00N 37°56' E 023°38'0 0.0
2017-Aug-20 17:30N 37°56' E 023°38'0 0.0
2017-Aug-20 17:00N 37°56' E 023°38'0 0.0
2017-Aug-20 16:31N 37°56' E 023°38'2 3.2
2017-Aug-20 16:00N 37°55' E 023°37'1223.9
2017-Aug-20 15:30N 37°44' E 023°44'1924.0
2017-Aug-20 14:42N 37°38' E 024°07'926.4
2017-Aug-20 14:23N 37°44' E 024°15'16 0.9
2017-Aug-19 19:15N 37°37' E 023°56'725.3
2017-Aug-19 18:59N 37°38' E 023°48'1123.6
2017-Aug-19 18:31N 37°47' E 023°39'1019.6
2017-Aug-19 18:00N 37°56' E 023°38'0 0.0
2017-Aug-19 17:30N 37°56' E 023°38'0 0.0
2017-Aug-19 17:00N 37°56' E 023°38'0 0.0
2017-Aug-19 16:31N 37°56' E 023°38'0 0.0
2017-Aug-19 16:00N 37°56' E 023°38'0 0.0
2017-Aug-19 15:30N 37°56' E 023°38'0 0.0
2017-Aug-19 15:00N 37°56' E 023°38'1919.0
2017-Aug-19 14:00N 37°40' E 023°49'1424.5
2017-Aug-19 13:26N 37°38' E 024°07'8 0.5
2017-Aug-18 19:17N 37°37' E 023°56'825.6
2017-Aug-18 19:00N 37°38' E 023°47'1224.2
2017-Aug-18 18:31N 37°48' E 023°39'816.3
2017-Aug-18 18:00N 37°56' E 023°38'0 0.0
2017-Aug-18 17:30N 37°56' E 023°38'0 0.0
2017-Aug-18 17:00N 37°56' E 023°38'0 0.0
2017-Aug-18 16:31N 37°56' E 023°38'0 0.0
2017-Aug-18 16:00N 37°56' E 023°38'0 0.0
2017-Aug-18 15:30N 37°56' E 023°38'0 0.0
2017-Aug-18 15:00N 37°56' E 023°38'1817.6
2017-Aug-18 14:00N 37°41' E 023°47'1624.7
2017-Aug-18 13:22N 37°38' E 024°07'1025.6
2017-Aug-18 12:58N 37°44' E 024°17'18 1.0
2017-Aug-17 19:05N 37°37' E 023°56'225.8
2017-Aug-17 19:00N 37°38' E 023°54'1223.8
2017-Aug-17 18:30N 37°43' E 023°41'1224.7
2017-Aug-17 18:00N 37°55' E 023°37'1 2.6
2017-Aug-17 17:30N 37°56' E 023°38'0 0.0
2017-Aug-17 17:00N 37°56' E 023°38'0 0.0
2017-Aug-17 16:30N 37°56' E 023°38'0 0.0
2017-Aug-17 16:00N 37°56' E 023°38'612.0
2017-Aug-17 15:31N 37°51' E 023°40'1325.1
2017-Aug-17 15:01N 37°40' E 023°48'5924.6
2017-Aug-17 12:37N 37°10' E 024°52'325.2
2017-Aug-17 12:31N 37°09' E 024°55'1222.3
2017-Aug-17 11:59N 37°05' E 025°09'0 0.8
2017-Aug-17 11:30N 37°05' E 025°09'917.9
2017-Aug-17 11:00N 37°10' E 025°17'611.1
2017-Aug-17 10:31N 37°06' E 025°22'3 5.4
2017-Aug-17 10:00N 37°09' E 025°21'4 8.8
2017-Aug-17 09:31N 37°11' E 025°16'1224.5
2017-Aug-17 09:01N 37°17' E 025°03'1224.5
2017-Aug-17 08:31N 37°22' E 024°49'4224.7
2017-Aug-17 06:48N 37°35' E 023°58'725.5
2017-Aug-17 06:30N 37°38' E 023°49'1224.4
2017-Aug-17 06:00N 37°46' E 023°39'1020.1
2017-Aug-17 05:31N 37°56' E 023°38'0 0.0
2017-Aug-17 05:01N 37°56' E 023°38'0 0.0
2017-Aug-17 04:31N 37°56' E 023°38'0 0.0
2017-Aug-17 04:01N 37°56' E 023°38'0 0.0
2017-Aug-17 03:31N 37°56' E 023°38'0 0.0
2017-Aug-17 03:01N 37°56' E 023°38'1 1.7
2017-Aug-17 02:31N 37°56' E 023°37'1122.5
2017-Aug-17 02:01N 37°46' E 023°43'1223.1
2017-Aug-17 01:30N 37°38' E 023°54'1822.9
2017-Aug-17 00:43N 37°44' E 024°16'17 0.6
2017-Aug-15 19:33N 37°37' E 023°56'719.7
2017-Aug-15 19:11N 37°39' E 023°47'319.5
2017-Aug-15 19:00N 37°40' E 023°43'1019.7
2017-Aug-15 18:30N 37°48' E 023°38'816.0
2017-Aug-15 18:00N 37°56' E 023°38'0 0.0
2017-Aug-15 17:30N 37°56' E 023°38'0 0.0
2017-Aug-15 17:00N 37°56' E 023°38'0 0.0
2017-Aug-15 16:31N 37°56' E 023°38'0 0.0
2017-Aug-15 16:01N 37°56' E 023°38'0 0.1
2017-Aug-15 15:30N 37°56' E 023°38'713.1
2017-Aug-15 15:01N 37°50' E 023°40'1225.0
2017-Aug-15 14:31N 37°40' E 023°49'4425.2
2017-Aug-15 12:45N 37°31' E 024°44'825.6
2017-Aug-15 12:27N 37°31' E 024°53'611.9
2017-Aug-15 11:59N 37°26' E 024°57'2 3.6
2017-Aug-15 11:31N 37°27' E 024°59'1325.0
2017-Aug-15 11:01N 37°28' E 025°14'4 8.0
2017-Aug-15 10:30N 37°28' E 025°19'0 0.0
2017-Aug-15 10:00N 37°28' E 025°19'0 0.0
2017-Aug-15 09:30N 37°28' E 025°19'5 9.1
2017-Aug-15 09:01N 37°28' E 025°14'1224.0
2017-Aug-15 08:31N 37°26' E 024°59'2 3.3
2017-Aug-15 08:00N 37°26' E 024°57'612.6
2017-Aug-15 07:30N 37°31' E 024°52'4324.3
2017-Aug-15 05:44N 37°36' E 023°57'625.6
2017-Aug-15 05:30N 37°38' E 023°51'1224.4
2017-Aug-15 05:01N 37°46' E 023°40'1121.4
2017-Aug-15 04:31N 37°56' E 023°38'0 0.1
2017-Aug-15 04:00N 37°56' E 023°38'0 0.0
2017-Aug-15 03:30N 37°56' E 023°38'0 0.0
2017-Aug-15 03:01N 37°56' E 023°38'0 0.2
2017-Aug-15 02:30N 37°56' E 023°38'917.8
2017-Aug-15 02:01N 37°48' E 023°41'1223.5
2017-Aug-15 01:31N 37°39' E 023°51'1324.2
2017-Aug-15 00:59N 37°38' E 024°07'9 0.3
2017-Aug-13 19:36N 37°37' E 023°56'220.0
2017-Aug-13 19:30N 37°38' E 023°54'918.8
2017-Aug-13 19:01N 37°41' E 023°42'1019.5
2017-Aug-13 18:30N 37°49' E 023°37'714.2
2017-Aug-13 18:00N 37°56' E 023°38'0 0.0
2017-Aug-13 17:31N 37°56' E 023°38'0 0.0
2017-Aug-13 17:01N 37°56' E 023°38'0 0.0
2017-Aug-13 16:30N 37°56' E 023°38'0 0.2
2017-Aug-13 16:01N 37°56' E 023°38'919.0
2017-Aug-13 15:31N 37°48' E 023°42'1224.0
2017-Aug-13 15:01N 37°39' E 023°53'1923.0
2017-Aug-13 14:12N 37°44' E 024°15'  
Track history (hours):
 
Tides and Currents Weather Stations Pressure Air Temp Water Temp Dewpoint Dewpoint Depression Visibility Wind Speed Wind Dir Waves Ship Positions

Blue Star 1

Last reported at 2017-Aug-22 19:32 UTC. Time now 2017-Aug-23 13:45 UTC.
Position N 37°37' E 023°56'.

Length 176 m; draft 6.5 m.

Type: Passenger vessel. MMSI: 239710000.

Date/timePositionNaut miles runAvg speedWind from/ knotsBaromVisibWave heightAir tempDewpointWater temp
2017-Aug-22 19:32N 37°37' E 023°56'119.4
2017-Aug-22 19:29N 37°37' E 023°55'919.2
2017-Aug-22 19:00N 37°40' E 023°44'1019.4
2017-Aug-22 18:30N 37°48' E 023°38'816.6
2017-Aug-22 18:00N 37°56' E 023°38'0 0.1
2017-Aug-22 17:30N 37°56' E 023°38'0 0.0
2017-Aug-22 17:00N 37°56' E 023°38'0 0.0
2017-Aug-22 16:30N 37°56' E 023°38'0 0.0
2017-Aug-22 16:00N 37°56' E 023°38'1 2.3
2017-Aug-22 15:31N 37°56' E 023°37'1223.7
2017-Aug-22 15:01N 37°45' E 023°44'1224.6
2017-Aug-22 14:30N 37°38' E 023°57'3825.0
2017-Aug-22 12:59N 37°31' E 024°44'1123.3
2017-Aug-22 12:31N 37°29' E 024°57'2 4.7
2017-Aug-22 12:00N 37°26' E 024°57'2 3.8
2017-Aug-22 11:30N 37°27' E 024°59'1325.4
2017-Aug-22 11:01N 37°28' E 025°15'4 7.3
2017-Aug-22 10:31N 37°28' E 025°19'0 0.0
2017-Aug-22 10:01N 37°28' E 025°19'0 0.0
2017-Aug-22 09:31N 37°28' E 025°19'4 8.2
2017-Aug-22 09:01N 37°28' E 025°14'1224.5
2017-Aug-22 08:30N 37°26' E 024°59'2 3.1
2017-Aug-22 07:56N 37°26' E 024°57'613.2
2017-Aug-22 07:27N 37°32' E 024°52'4425.3
2017-Aug-22 05:44N 37°36' E 023°57'625.8
2017-Aug-22 05:30N 37°38' E 023°50'1224.4
2017-Aug-22 05:01N 37°46' E 023°40'1020.8
2017-Aug-22 04:30N 37°56' E 023°38'0 0.0
2017-Aug-22 04:00N 37°56' E 023°38'0 0.0
2017-Aug-22 03:30N 37°56' E 023°38'0 0.0
2017-Aug-22 03:00N 37°56' E 023°38'0 0.2
2017-Aug-22 02:31N 37°56' E 023°38'1019.3
2017-Aug-22 02:01N 37°47' E 023°42'1223.8
2017-Aug-22 01:31N 37°39' E 023°53'2023.6
2017-Aug-22 00:39N 37°44' E 024°17'12 0.4
2017-Aug-20 19:55N 37°37' E 024°05'819.4
2017-Aug-20 19:30N 37°38' E 023°55'1019.5
2017-Aug-20 19:00N 37°40' E 023°43'1019.4
2017-Aug-20 18:30N 37°49' E 023°38'815.4
2017-Aug-20 18:00N 37°56' E 023°38'0 0.0
2017-Aug-20 17:30N 37°56' E 023°38'0 0.0
2017-Aug-20 17:00N 37°56' E 023°38'0 0.0
2017-Aug-20 16:31N 37°56' E 023°38'2 3.2
2017-Aug-20 16:00N 37°55' E 023°37'1223.9
2017-Aug-20 15:30N 37°44' E 023°44'1924.0
2017-Aug-20 14:42N 37°38' E 024°07'926.4
2017-Aug-20 14:23N 37°44' E 024°15'16 0.9
2017-Aug-19 19:15N 37°37' E 023°56'725.3
2017-Aug-19 18:59N 37°38' E 023°48'1123.6
2017-Aug-19 18:31N 37°47' E 023°39'1019.6
2017-Aug-19 18:00N 37°56' E 023°38'0 0.0
2017-Aug-19 17:30N 37°56' E 023°38'0 0.0
2017-Aug-19 17:00N 37°56' E 023°38'0 0.0
2017-Aug-19 16:31N 37°56' E 023°38'0 0.0
2017-Aug-19 16:00N 37°56' E 023°38'0 0.0
2017-Aug-19 15:30N 37°56' E 023°38'0 0.0
2017-Aug-19 15:00N 37°56' E 023°38'1919.0
2017-Aug-19 14:00N 37°40' E 023°49'1424.5
2017-Aug-19 13:26N 37°38' E 024°07'8 0.5
2017-Aug-18 19:17N 37°37' E 023°56'825.6
2017-Aug-18 19:00N 37°38' E 023°47'1224.2
2017-Aug-18 18:31N 37°48' E 023°39'816.3
2017-Aug-18 18:00N 37°56' E 023°38'0 0.0
2017-Aug-18 17:30N 37°56' E 023°38'0 0.0
2017-Aug-18 17:00N 37°56' E 023°38'0 0.0
2017-Aug-18 16:31N 37°56' E 023°38'0 0.0
2017-Aug-18 16:00N 37°56' E 023°38'0 0.0
2017-Aug-18 15:30N 37°56' E 023°38'0 0.0
2017-Aug-18 15:00N 37°56' E 023°38'1817.6
2017-Aug-18 14:00N 37°41' E 023°47'1624.7
2017-Aug-18 13:22N 37°38' E 024°07'1025.6
2017-Aug-18 12:58N 37°44' E 024°17'18 1.0
2017-Aug-17 19:05N 37°37' E 023°56'225.8
2017-Aug-17 19:00N 37°38' E 023°54'1223.8
2017-Aug-17 18:30N 37°43' E 023°41'1224.7
2017-Aug-17 18:00N 37°55' E 023°37'1 2.6
2017-Aug-17 17:30N 37°56' E 023°38'0 0.0
2017-Aug-17 17:00N 37°56' E 023°38'0 0.0
2017-Aug-17 16:30N 37°56' E 023°38'0 0.0
2017-Aug-17 16:00N 37°56' E 023°38'612.0
2017-Aug-17 15:31N 37°51' E 023°40'1325.1
2017-Aug-17 15:01N 37°40' E 023°48'5924.6
2017-Aug-17 12:37N 37°10' E 024°52'325.2
2017-Aug-17 12:31N 37°09' E 024°55'1222.3
2017-Aug-17 11:59N 37°05' E 025°09'0 0.8
2017-Aug-17 11:30N 37°05' E 025°09'917.9
2017-Aug-17 11:00N 37°10' E 025°17'611.1
2017-Aug-17 10:31N 37°06' E 025°22'3 5.4
2017-Aug-17 10:00N 37°09' E 025°21'4 8.8
2017-Aug-17 09:31N 37°11' E 025°16'1224.5
2017-Aug-17 09:01N 37°17' E 025°03'1224.5
2017-Aug-17 08:31N 37°22' E 024°49'4224.7
2017-Aug-17 06:48N 37°35' E 023°58'725.5
2017-Aug-17 06:30N 37°38' E 023°49'1224.4
2017-Aug-17 06:00N 37°46' E 023°39'1020.1
2017-Aug-17 05:31N 37°56' E 023°38'0 0.0
2017-Aug-17 05:01N 37°56' E 023°38'0 0.0
2017-Aug-17 04:31N 37°56' E 023°38'0 0.0
2017-Aug-17 04:01N 37°56' E 023°38'0 0.0
2017-Aug-17 03:31N 37°56' E 023°38'0 0.0
2017-Aug-17 03:01N 37°56' E 023°38'1 1.7
2017-Aug-17 02:31N 37°56' E 023°37'1122.5
2017-Aug-17 02:01N 37°46' E 023°43'1223.1
2017-Aug-17 01:30N 37°38' E 023°54'1822.9
2017-Aug-17 00:43N 37°44' E 024°16'17 0.6
2017-Aug-15 19:33N 37°37' E 023°56'719.7
2017-Aug-15 19:11N 37°39' E 023°47'319.5
2017-Aug-15 19:00N 37°40' E 023°43'1019.7
2017-Aug-15 18:30N 37°48' E 023°38'816.0
2017-Aug-15 18:00N 37°56' E 023°38'0 0.0
2017-Aug-15 17:30N 37°56' E 023°38'0 0.0
2017-Aug-15 17:00N 37°56' E 023°38'0 0.0
2017-Aug-15 16:31N 37°56' E 023°38'0 0.0
2017-Aug-15 16:01N 37°56' E 023°38'0 0.1
2017-Aug-15 15:30N 37°56' E 023°38'713.1
2017-Aug-15 15:01N 37°50' E 023°40'1225.0
2017-Aug-15 14:31N 37°40' E 023°49'4425.2
2017-Aug-15 12:45N 37°31' E 024°44'825.6
2017-Aug-15 12:27N 37°31' E 024°53'611.9
2017-Aug-15 11:59N 37°26' E 024°57'2 3.6
2017-Aug-15 11:31N 37°27' E 024°59'1325.0
2017-Aug-15 11:01N 37°28' E 025°14'4 8.0
2017-Aug-15 10:30N 37°28' E 025°19'0 0.0
2017-Aug-15 10:00N 37°28' E 025°19'0 0.0
2017-Aug-15 09:30N 37°28' E 025°19'5 9.1
2017-Aug-15 09:01N 37°28' E 025°14'1224.0
2017-Aug-15 08:31N 37°26' E 024°59'2 3.3
2017-Aug-15 08:00N 37°26' E 024°57'612.6
2017-Aug-15 07:30N 37°31' E 024°52'4324.3
2017-Aug-15 05:44N 37°36' E 023°57'625.6
2017-Aug-15 05:30N 37°38' E 023°51'1224.4
2017-Aug-15 05:01N 37°46' E 023°40'1121.4
2017-Aug-15 04:31N 37°56' E 023°38'0 0.1
2017-Aug-15 04:00N 37°56' E 023°38'0 0.0
2017-Aug-15 03:30N 37°56' E 023°38'0 0.0
2017-Aug-15 03:01N 37°56' E 023°38'0 0.2
2017-Aug-15 02:30N 37°56' E 023°38'917.8
2017-Aug-15 02:01N 37°48' E 023°41'1223.5
2017-Aug-15 01:31N 37°39' E 023°51'1324.2
2017-Aug-15 00:59N 37°38' E 024°07'9 0.3
2017-Aug-13 19:36N 37°37' E 023°56'220.0
2017-Aug-13 19:30N 37°38' E 023°54'918.8
2017-Aug-13 19:01N 37°41' E 023°42'1019.5
2017-Aug-13 18:30N 37°49' E 023°37'714.2
2017-Aug-13 18:00N 37°56' E 023°38'0 0.0
2017-Aug-13 17:31N 37°56' E 023°38'0 0.0
2017-Aug-13 17:01N 37°56' E 023°38'0 0.0
2017-Aug-13 16:30N 37°56' E 023°38'0 0.2
2017-Aug-13 16:01N 37°56' E 023°38'919.0
2017-Aug-13 15:31N 37°48' E 023°42'1224.0
2017-Aug-13 15:01N 37°39' E 023°53'1923.0
2017-Aug-13 14:12N 37°44' E 024°15'  

Dump ship's entire track history